Home > Products > Valid Products > SSM

000
SMZS01 NSTU 271802
SSMPPG
AAXX 27184
91765 11467 71417 10244 20216 30132 40135 52010 69981 78082 84878
333 5639/ 70010 555 92718=




000
SMZS01 NSTU 271201
SSMPPG
AAXX 27124
91765 11566 71217 10243 20216 30135 40139 57003 69931 70282 84418
333 10273 56399 58000 70003 555 92712=




000
SMZS01 NSTU 270612
SSMPPG
AAXX 27064
91765 11566 81221 10257 20202 30127 40130 52012 69901 72122 881//
333 565// 70000 555 92706=





000
SMZS01 NSTU 262357
SSMPPG
AAXX 27004
91765 11569 41420 10266 20204 30127 40130 56017 69904 70261 84100
333 20235 563// 58003 555 92700=




000
SMZS01 NSTU 261806
SSMPPG
AAXX 26184
91765 31567 71317 10250 20201 30134 40137 52010 70262 84478 333
56399 555 92618=




000
SMZS01 NSTU 261157
SSMPPG
AAXX 26124
91765 31566 81417 10235 20207 30135 40139 57005 70282 8642/ 333
10263 56399 58012 555 92612=




000
SMZS01 NSTU 260603
SSMPPG
AAXX 26064
91765 12566 81419 10249 20200 30125 40129 53014 69901 8617/ 333
5687/ 70000 555 92606=





000
SMZS01 NSTU 252356
SSMPPG
AAXX 26004
91765 32569 71419 10260 20202 30124 40127 56015 86870 333 20250
5633/ 59005 555 92600=




000
SMZS01 NSTU 251757
SSMPPG
AAXX 25184
91765 32469 81417 10252 20201 30122 40125 52012 85418 333 56399 555
92518=




000
SMZS01 NSTU 251202
SSMPPG
AAXX 25124
91765 32566 61313 10252 20195 30124 40127 57008 84440 333 10268
5639/ 59012 555 92512=




000
SMZS01 NSTU 250605
SSMPPG
AAXX 25064
91765 32566 81413 10254 20196 30120 40124 53008 881// 333 568//
70000 555 92506=





000
SMZS01 NSTU 250604
SSMPPG
AAXX 25064
91765 32566 81413 10254 20196 30120 40124 53008 881// 333 568//
70000 555 92506=





000
SMZS01 NSTU 242358
SSMPPG
AAXX 25004
91765 12569 61514 10265 20202 30129 40132 57020 69904 84470 333
20247 5639/ 58002 555 92500=




    US Dept of Commerce
    National Oceanic and Atmospheric Administration
    National Weather Service
    1325 East West Highway
    Silver Spring, MD 20910
    Page Author: NWS Internet Services Team
Disclaimer
Information Quality
Credits
Glossary
Privacy Policy
Freedom of Information Act (FOIA)
About Us
Career Opportunities